Time;durP1;ratioP1;P1;durP2;ratioP2;P2;SDS_P1;SDS_P2;PMS_P1;PMS_P2;Temp;Humidity;BMP_temperature;BMP_pressure;BME280_temperature;BME280_humidity;BME280_pressure;Samples;Min_cycle;Max_cycle;Signal;HPM_P1;HPM_P2
2022/02/24 00:02:08;;;;;;;11.97;5.80;;;6.10;99.90;;;;;;5116702;28;20469;-42
2022/02/24 00:04:35;;;;;;;10.83;5.10;;;6.10;99.90;;;;;;5116531;28;20445;-42
2022/02/24 00:07:02;;;;;;;8.67;4.30;;;6.10;99.90;;;;;;5116221;28;20864;-42
2022/02/24 00:09:28;;;;;;;12.70;5.10;;;6.00;99.90;;;;;;5116039;28;20526;-43
2022/02/24 00:11:55;;;;;;;13.23;5.70;;;6.00;99.90;;;;;;5116708;28;20436;-43
2022/02/24 00:14:22;;;;;;;9.37;5.00;;;6.00;99.90;;;;;;5116877;28;20437;-42
2022/02/24 00:16:49;;;;;;;13.53;6.10;;;6.00;99.90;;;;;;5115681;28;20448;-45
2022/02/24 00:19:16;;;;;;;12.57;4.57;;;6.00;99.90;;;;;;5115871;28;20628;-42
2022/02/24 00:21:43;;;;;;;7.87;4.57;;;5.90;99.90;;;;;;5098829;28;20488;-46
2022/02/24 00:24:10;;;;;;;8.10;4.80;;;5.90;99.90;;;;;;5117073;28;20475;-42
2022/02/24 00:26:37;;;;;;;14.30;4.70;;;6.00;99.90;;;;;;5116114;28;20427;-45
2022/02/24 00:29:04;;;;;;;10.20;4.33;;;6.00;99.90;;;;;;5115766;28;20391;-42
2022/02/24 00:31:31;;;;;;;10.30;4.80;;;5.90;99.90;;;;;;5115512;28;20456;-44
2022/02/24 00:34:01;;;;;;;9.97;5.00;;;5.90;99.90;;;;;;5115715;28;20411;-43
2022/02/24 00:36:27;;;;;;;9.63;4.40;;;5.90;99.90;;;;;;5115883;28;20457;-43
2022/02/24 00:38:54;;;;;;;15.87;5.13;;;5.90;99.90;;;;;;5115552;28;20436;-43
2022/02/24 00:41:21;;;;;;;10.27;5.53;;;5.80;99.90;;;;;;5115319;28;20475;-42
2022/02/24 00:43:47;;;;;;;11.90;5.20;;;5.80;99.90;;;;;;5115317;28;20444;-43
2022/02/24 00:46:14;;;;;;;8.73;5.60;;;5.80;99.90;;;;;;5115320;28;20436;-44
2022/02/24 00:48:41;;;;;;;8.30;5.00;;;5.80;99.90;;;;;;5114970;28;20408;-44
2022/02/24 00:51:09;;;;;;;12.33;5.70;;;5.80;99.90;;;;;;5115176;28;20420;-44
2022/02/24 00:53:41;;;;;;;10.13;5.27;;;5.80;99.90;;;;;;5115114;28;20766;-44
2022/02/24 00:56:08;;;;;;;10.60;4.50;;;5.80;99.90;;;;;;5114903;28;20504;-44
2022/02/24 00:58:35;;;;;;;8.70;5.00;;;5.70;99.90;;;;;;5114425;28;20428;-43
2022/02/24 01:01:01;;;;;;;9.03;4.80;;;5.70;99.90;;;;;;5115062;28;20467;-44
2022/02/24 01:03:28;;;;;;;9.17;5.97;;;5.70;99.90;;;;;;5114793;28;20601;-43
2022/02/24 01:05:55;;;;;;;12.83;5.07;;;5.70;99.90;;;;;;5114875;28;20453;-43
2022/02/24 01:08:23;;;;;;;12.53;5.90;;;5.60;99.90;;;;;;5114529;28;20400;-43
2022/02/24 01:10:49;;;;;;;10.15;5.60;;;5.60;99.90;;;;;;5114499;28;20737;-42
2022/02/24 01:13:16;;;;;;;8.43;5.23;;;5.60;99.90;;;;;;5096280;28;20196;-43
2022/02/24 01:15:43;;;;;;;15.33;5.90;;;5.60;99.90;;;;;;5114548;28;20437;-42
2022/02/24 01:18:10;;;;;;;9.17;5.17;;;5.60;99.90;;;;;;5114512;28;20922;-43
2022/02/24 01:20:37;;;;;;;11.80;5.30;;;5.50;99.90;;;;;;5114149;28;20506;-43
2022/02/24 01:23:05;;;;;;;9.33;5.43;;;5.50;99.90;;;;;;5114385;28;20500;-46
2022/02/24 01:25:33;;;;;;;14.07;5.65;;;5.60;99.90;;;;;;5114118;28;20826;-42
2022/02/24 01:28:00;;;;;;;9.47;5.30;;;5.50;99.90;;;;;;5114410;28;20195;-43
2022/02/24 01:30:26;;;;;;;10.70;5.63;;;5.40;99.90;;;;;;5113974;28;20511;-43
2022/02/24 01:32:53;;;;;;;9.00;5.07;;;5.40;99.90;;;;;;5114330;28;20407;-44
2022/02/24 01:35:20;;;;;;;13.27;5.23;;;5.40;99.90;;;;;;5114128;28;20985;-42
2022/02/24 01:37:47;;;;;;;11.13;5.07;;;5.40;99.90;;;;;;5095893;28;20418;-44
2022/02/24 01:40:14;;;;;;;11.68;6.10;;;5.40;99.90;;;;;;5113715;28;20409;-43
2022/02/24 01:42:43;;;;;;;9.07;5.32;;;5.40;99.90;;;;;;5093788;28;20226;-43
2022/02/24 01:45:11;;;;;;;14.50;4.97;;;5.40;99.90;;;;;;5093740;28;20223;-42
2022/02/24 01:47:38;;;;;;;17.40;6.13;;;5.40;99.90;;;;;;5093622;28;20432;-41
2022/02/24 01:50:07;;;;;;;17.95;6.38;;;5.30;99.90;;;;;;5093480;28;20404;-44
2022/02/24 01:52:35;;;;;;;15.30;6.60;;;5.30;99.90;;;;;;5093313;28;20198;-43
2022/02/24 01:55:02;;;;;;;11.37;5.00;;;5.30;99.90;;;;;;5093306;28;20434;-44
2022/02/24 01:57:29;;;;;;;10.07;4.73;;;5.30;99.90;;;;;;5093900;28;20434;-42
2022/02/24 01:59:57;;;;;;;12.88;5.90;;;5.00;99.90;;;;;;5092470;28;20441;-44
2022/02/24 02:02:24;;;;;;;11.30;6.43;;;5.30;99.90;;;;;;5093269;28;20215;-43
2022/02/24 02:04:51;;;;;;;11.55;5.53;;;5.30;99.90;;;;;;5092947;28;20410;-42
2022/02/24 02:07:18;;;;;;;11.95;4.90;;;5.20;99.90;;;;;;5093127;28;20200;-44
2022/02/24 02:09:45;;;;;;;8.83;5.10;;;5.20;99.90;;;;;;5092679;28;20565;-43
2022/02/24 02:12:12;;;;;;;10.82;5.18;;;5.20;99.90;;;;;;5093140;28;20403;-43
2022/02/24 02:14:38;;;;;;;9.83;5.07;;;5.10;99.90;;;;;;5074771;28;20218;-43
2022/02/24 02:17:06;;;;;;;15.73;5.67;;;5.20;99.90;;;;;;5092907;28;20456;-46
2022/02/24 02:19:33;;;;;;;8.43;5.60;;;5.20;99.90;;;;;;5092367;28;20440;-44
2022/02/24 02:22:01;;;;;;;12.80;5.18;;;5.20;99.90;;;;;;5092919;28;20238;-44
2022/02/24 02:24:28;;;;;;;11.70;4.60;;;5.10;99.90;;;;;;5092902;28;20195;-44
2022/02/24 02:26:57;;;;;;;9.15;4.97;;;5.10;99.90;;;;;;5092858;28;20226;-44
2022/02/24 02:29:23;;;;;;;9.90;5.00;;;5.10;99.90;;;;;;5092349;28;20295;-46
2022/02/24 02:31:50;;;;;;;6.33;3.70;;;5.10;99.90;;;;;;5092599;28;20199;-43
2022/02/24 02:34:18;;;;;;;7.23;4.63;;;5.10;99.90;;;;;;5101230;28;20883;-42
2022/02/24 02:36:47;;;;;;;13.13;6.00;;;5.10;99.90;;;;;;5112815;28;20444;-43
2022/02/24 02:39:16;;;;;;;12.60;4.80;;;5.10;99.90;;;;;;5112580;28;20435;-45
2022/02/24 02:41:45;;;;;;;7.50;4.47;;;5.00;99.90;;;;;;5112986;28;20268;-43
2022/02/24 02:44:13;;;;;;;11.20;4.57;;;5.00;99.90;;;;;;5112771;28;20434;-43
2022/02/24 02:46:40;;;;;;;11.82;5.30;;;5.10;99.90;;;;;;5112662;28;20222;-42
2022/02/24 02:49:06;;;;;;;11.15;4.43;;;5.00;99.90;;;;;;5112332;28;20198;-42
2022/02/24 02:51:33;;;;;;;11.02;5.07;;;5.00;99.90;;;;;;5112719;28;20195;-41
2022/02/24 02:54:00;;;;;;;12.98;5.85;;;5.00;99.90;;;;;;5094373;28;20661;-42
2022/02/24 02:56:28;;;;;;;9.77;5.30;;;5.00;99.90;;;;;;5112648;28;20598;-42
2022/02/24 02:58:54;;;;;;;12.95;4.88;;;5.00;99.90;;;;;;5112251;28;20204;-44
2022/02/24 03:01:21;;;;;;;8.18;4.93;;;5.00;99.90;;;;;;5094097;28;20198;-42
2022/02/24 03:03:48;;;;;;;9.88;4.28;;;5.00;99.90;;;;;;5112455;28;20654;-42
2022/02/24 03:06:14;;;;;;;10.05;4.25;;;5.00;99.90;;;;;;5112290;28;20223;-46
2022/02/24 03:08:41;;;;;;;14.60;5.00;;;5.00;99.90;;;;;;5112144;28;20246;-44
2022/02/24 03:11:07;;;;;;;8.77;4.63;;;5.00;99.90;;;;;;5111647;28;20414;-43
2022/02/24 03:13:35;;;;;;;10.45;4.53;;;5.00;99.90;;;;;;5112293;28;20198;-43
2022/02/24 03:16:02;;;;;;;8.77;4.50;;;5.00;99.90;;;;;;5112262;28;20592;-42
2022/02/24 03:18:29;;;;;;;8.13;4.35;;;4.90;99.90;;;;;;5111980;28;20213;-44
2022/02/24 03:20:55;;;;;;;13.23;5.33;;;5.00;99.90;;;;;;5112302;28;20352;-43
2022/02/24 03:23:22;;;;;;;9.02;4.05;;;4.70;99.90;;;;;;5111964;28;20494;-42
2022/02/24 03:25:48;;;;;;;15.77;5.50;;;4.90;99.90;;;;;;5093990;28;20225;-42
2022/02/24 03:28:15;;;;;;;7.50;4.65;;;4.80;99.90;;;;;;5112201;28;20414;-43
2022/02/24 03:30:43;;;;;;;9.75;5.32;;;5.00;99.90;;;;;;5111917;28;20194;-42
2022/02/24 03:33:10;;;;;;;10.15;4.93;;;4.90;99.90;;;;;;5093882;28;20198;-43
2022/02/24 03:35:36;;;;;;;8.18;4.00;;;5.00;99.90;;;;;;5112114;28;20217;-42
2022/02/24 03:38:03;;;;;;;11.05;3.95;;;4.90;99.90;;;;;;5112142;28;20601;-42
2022/02/24 03:40:30;;;;;;;10.02;4.30;;;4.90;99.90;;;;;;5111611;28;20270;-44
2022/02/24 03:42:56;;;;;;;12.15;3.55;;;4.90;99.90;;;;;;5112322;28;20217;-43
2022/02/24 03:45:23;;;;;;;7.82;4.20;;;4.90;99.90;;;;;;5111910;28;20578;-43
2022/02/24 03:47:51;;;;;;;12.43;3.83;;;4.90;99.90;;;;;;5111960;28;20214;-46
2022/02/24 03:50:17;;;;;;;6.88;3.67;;;4.90;99.90;;;;;;5111648;28;20812;-42
2022/02/24 03:52:46;;;;;;;9.93;4.75;;;4.90;99.90;;;;;;5111954;28;20183;-45
2022/02/24 03:55:13;;;;;;;7.53;3.57;;;4.90;99.90;;;;;;5111796;28;20222;-42
2022/02/24 03:57:39;;;;;;;8.10;3.72;;;4.90;99.90;;;;;;5111882;28;20476;-42
2022/02/24 04:00:08;;;;;;;11.40;4.20;;;4.90;99.90;;;;;;5111417;28;20205;-44
2022/02/24 04:02:42;;;;;;;10.20;4.85;;;4.90;99.90;;;;;;5111641;28;20850;-43
2022/02/24 04:05:11;;;;;;;7.85;4.00;;;4.90;99.90;;;;;;5111617;28;20198;-42
2022/02/24 04:07:37;;;;;;;14.90;4.72;;;4.90;99.90;;;;;;5111870;28;20205;-43
2022/02/24 04:10:06;;;;;;;8.60;3.93;;;4.90;99.90;;;;;;5111254;28;20681;-43
2022/02/24 04:12:34;;;;;;;9.43;4.60;;;4.90;99.90;;;;;;5111747;28;20446;-44
2022/02/24 04:15:01;;;;;;;9.60;4.83;;;4.90;99.90;;;;;;5111808;28;20467;-43
2022/02/24 04:17:28;;;;;;;12.65;4.22;;;4.90;99.90;;;;;;5111714;28;20447;-42
2022/02/24 04:19:55;;;;;;;10.10;3.73;;;4.90;99.90;;;;;;5111256;28;20198;-42
2022/02/24 04:22:23;;;;;;;10.70;4.97;;;4.70;99.90;;;;;;5111676;28;20947;-44
2022/02/24 04:24:49;;;;;;;6.85;4.20;;;4.80;99.90;;;;;;5115547;28;20199;-43
2022/02/24 04:27:16;;;;;;;9.00;3.80;;;4.90;99.90;;;;;;5115456;28;20248;-43
2022/02/24 04:29:42;;;;;;;7.85;4.10;;;4.80;99.90;;;;;;5115159;28;20202;-44
2022/02/24 04:32:09;;;;;;;9.20;4.40;;;4.80;99.90;;;;;;5115536;28;20274;-43
2022/02/24 04:34:36;;;;;;;6.77;4.10;;;4.90;99.90;;;;;;5115532;28;20940;-43
2022/02/24 04:37:02;;;;;;;12.32;4.88;;;4.80;99.90;;;;;;5115353;28;20429;-42
2022/02/24 04:39:30;;;;;;;11.50;3.95;;;4.80;99.90;;;;;;5114868;28;20194;-43
2022/02/24 04:41:57;;;;;;;8.30;4.43;;;4.80;99.90;;;;;;5115071;28;20206;-44
2022/02/24 04:44:24;;;;;;;10.75;4.00;;;4.80;99.90;;;;;;5115106;28;20595;-41
2022/02/24 04:46:50;;;;;;;6.90;3.60;;;4.80;99.90;;;;;;5115087;28;20219;-42
2022/02/24 04:49:17;;;;;;;10.52;4.45;;;4.80;99.90;;;;;;5114265;28;20194;-45
2022/02/24 04:51:44;;;;;;;5.65;3.78;;;4.80;99.90;;;;;;5114954;28;20303;-42
2022/02/24 04:54:11;;;;;;;8.50;3.93;;;4.80;99.90;;;;;;5114968;28;20190;-43
2022/02/24 04:56:39;;;;;;;8.40;4.05;;;4.90;99.90;;;;;;5134851;22;20491;-52
2022/02/24 04:59:05;;;;;;;9.57;4.40;;;4.80;99.90;;;;;;5114076;28;20195;-51
2022/02/24 05:01:32;;;;;;;6.70;4.05;;;5.00;99.90;;;;;;5114469;28;20570;-51
2022/02/24 05:03:59;;;;;;;14.53;5.70;;;4.80;99.90;;;;;;5114479;28;20793;-52
2022/02/24 05:06:26;;;;;;;9.70;4.78;;;4.90;99.90;;;;;;5114165;28;20561;-51
2022/02/24 05:08:52;;;;;;;8.20;4.37;;;4.90;99.90;;;;;;5114100;28;20564;-50
2022/02/24 05:11:19;;;;;;;7.33;3.97;;;4.90;99.90;;;;;;5114305;28;20920;-51
2022/02/24 05:13:47;;;;;;;11.88;4.68;;;4.90;99.90;;;;;;5114177;28;20430;-50
2022/02/24 05:16:14;;;;;;;12.15;4.10;;;4.80;99.90;;;;;;5113989;28;20300;-51
2022/02/24 05:18:40;;;;;;;12.38;5.18;;;4.90;99.90;;;;;;5113689;28;20202;-51
2022/02/24 05:21:07;;;;;;;10.23;5.05;;;4.90;99.90;;;;;;5114018;28;20200;-52
2022/02/24 05:23:34;;;;;;;6.85;4.07;;;4.90;99.90;;;;;;5113916;28;20355;-51
2022/02/24 05:26:00;;;;;;;8.40;4.35;;;4.90;99.90;;;;;;5113751;28;20228;-51
2022/02/24 05:28:27;;;;;;;10.70;4.95;;;4.90;99.90;;;;;;5113363;28;20198;-51
2022/02/24 05:30:59;;;;;;;7.28;3.95;;;4.90;99.90;;;;;;5113815;28;20236;-52
2022/02/24 05:33:26;;;;;;;11.88;5.05;;;4.90;99.90;;;;;;5113670;28;20243;-51
2022/02/24 05:35:53;;;;;;;13.83;4.37;;;4.90;99.90;;;;;;5112654;28;20218;-51
2022/02/24 05:38:20;;;;;;;11.03;4.83;;;4.90;99.90;;;;;;5113693;28;20506;-52
2022/02/24 05:40:46;;;;;;;13.32;4.53;;;4.90;99.90;;;;;;5113489;28;20929;-52
2022/02/24 05:43:13;;;;;;;13.52;5.43;;;4.90;99.90;;;;;;5113752;28;20225;-52
2022/02/24 05:45:40;;;;;;;11.27;5.80;;;4.90;99.90;;;;;;5113488;28;20214;-52
2022/02/24 05:48:08;;;;;;;10.75;4.47;;;4.90;99.90;;;;;;5113512;28;20198;-52
2022/02/24 05:50:34;;;;;;;10.30;4.45;;;4.90;99.90;;;;;;5112858;28;20315;-51
2022/02/24 05:53:02;;;;;;;9.43;4.57;;;4.90;99.90;;;;;;5094948;28;20198;-52
2022/02/24 05:55:29;;;;;;;8.93;3.97;;;4.90;99.90;;;;;;5113162;28;20286;-51
2022/02/24 05:57:55;;;;;;;12.35;5.15;;;5.00;99.90;;;;;;5113392;28;20194;-51
2022/02/24 06:00:22;;;;;;;9.27;4.87;;;5.00;99.90;;;;;;5112762;28;20200;-50
2022/02/24 06:02:49;;;;;;;6.43;4.37;;;5.10;99.90;;;;;;5112998;28;20877;-50
2022/02/24 06:05:17;;;;;;;8.80;4.70;;;5.20;99.90;;;;;;5113321;28;20444;-51
2022/02/24 06:07:44;;;;;;;7.13;3.70;;;5.20;99.90;;;;;;5113263;28;20874;-51
2022/02/24 06:10:11;;;;;;;15.30;5.53;;;5.20;99.90;;;;;;5112770;28;20409;-52
2022/02/24 06:12:38;;;;;;;6.23;3.73;;;5.30;99.90;;;;;;5112711;28;20432;-51
2022/02/24 06:15:07;;;;;;;13.57;5.30;;;5.30;99.90;;;;;;5112571;28;20831;-51
2022/02/24 06:17:34;;;;;;;10.10;4.82;;;5.40;99.90;;;;;;5112325;28;20190;-51
2022/02/24 06:20:01;;;;;;;11.35;4.60;;;5.40;99.90;;;;;;5112456;28;20251;-50
2022/02/24 06:22:29;;;;;;;12.15;4.65;;;5.50;99.90;;;;;;5112413;28;20194;-51
2022/02/24 06:24:56;;;;;;;9.85;5.15;;;5.50;99.90;;;;;;5112575;28;20198;-50
2022/02/24 06:27:22;;;;;;;8.40;4.33;;;5.50;99.90;;;;;;5111548;28;20218;-51
2022/02/24 06:29:49;;;;;;;10.40;4.97;;;5.60;99.90;;;;;;5112302;28;20441;-52
2022/02/24 06:32:16;;;;;;;10.50;5.67;;;5.60;99.90;;;;;;5112396;28;20408;-52
2022/02/24 06:34:43;;;;;;;7.87;5.33;;;5.70;99.90;;;;;;5093845;28;20448;-51
2022/02/24 06:37:10;;;;;;;12.90;5.20;;;5.70;99.90;;;;;;5112052;28;20474;-52
2022/02/24 06:39:38;;;;;;;9.20;5.70;;;5.70;99.90;;;;;;5111876;28;20846;-51
2022/02/24 06:42:05;;;;;;;10.70;5.53;;;5.70;99.90;;;;;;5112270;28;20563;-52
2022/02/24 06:44:32;;;;;;;17.17;5.87;;;5.70;99.90;;;;;;5111921;28;20479;-53
2022/02/24 06:46:58;;;;;;;8.77;5.35;;;5.70;99.90;;;;;;5112001;28;20530;-53
2022/02/24 06:49:25;;;;;;;9.23;5.50;;;5.70;99.90;;;;;;5093611;28;20674;-52
2022/02/24 06:51:54;;;;;;;9.50;6.60;;;5.60;99.90;;;;;;5111772;28;20429;-50
2022/02/24 06:54:21;;;;;;;10.73;6.50;;;5.80;99.90;;;;;;5112217;28;20456;-53
2022/02/24 06:56:49;;;;;;;13.23;5.70;;;5.90;99.90;;;;;;5111636;28;20446;-55
2022/02/24 06:59:16;;;;;;;12.90;4.93;;;5.90;99.90;;;;;;5111527;28;20402;-55
2022/02/24 07:01:42;;;;;;;9.57;5.20;;;5.90;99.90;;;;;;5111642;28;20461;-54
2022/02/24 07:04:09;;;;;;;13.03;5.67;;;5.90;99.90;;;;;;5111963;28;20882;-55
2022/02/24 07:06:36;;;;;;;8.27;5.10;;;5.90;99.90;;;;;;5111727;28;20445;-55
2022/02/24 07:09:03;;;;;;;9.67;5.50;;;6.00;99.90;;;;;;5111469;28;20445;-53
2022/02/24 07:11:29;;;;;;;11.43;5.90;;;6.10;99.90;;;;;;5111654;28;20501;-54
2022/02/24 07:13:57;;;;;;;9.70;5.30;;;6.10;99.90;;;;;;5111565;28;20457;-55
2022/02/24 07:16:24;;;;;;;9.47;4.50;;;6.20;99.90;;;;;;5111872;28;20458;-55
2022/02/24 07:18:50;;;;;;;11.73;5.40;;;6.20;99.90;;;;;;5111870;28;20418;-54
2022/02/24 07:21:17;;;;;;;11.40;5.80;;;6.20;99.90;;;;;;5111753;28;20399;-54
2022/02/24 07:23:44;;;;;;;8.10;4.90;;;6.30;99.90;;;;;;5111530;28;20827;-54
2022/02/24 07:26:11;;;;;;;11.53;4.57;;;6.30;99.90;;;;;;5092803;28;20475;-54
2022/02/24 07:28:37;;;;;;;13.23;6.20;;;6.30;99.90;;;;;;5111065;28;20937;-54
2022/02/24 07:31:05;;;;;;;9.23;6.20;;;6.30;99.90;;;;;;5111458;28;20416;-55
2022/02/24 07:33:32;;;;;;;6.83;5.70;;;6.40;99.90;;;;;;5111602;28;20414;-55
2022/02/24 07:35:59;;;;;;;11.40;4.93;;;6.40;99.90;;;;;;5111184;28;20427;-55
2022/02/24 07:38:25;;;;;;;7.93;4.33;;;6.30;99.90;;;;;;5110760;28;20791;-52
2022/02/24 07:40:52;;;;;;;8.83;5.07;;;6.40;99.90;;;;;;5111217;28;20428;-54
2022/02/24 07:43:19;;;;;;;13.50;4.90;;;6.40;99.90;;;;;;5111356;28;20519;-54
2022/02/24 07:45:45;;;;;;;6.67;4.10;;;6.40;99.90;;;;;;5111139;28;20458;-54
2022/02/24 07:48:13;;;;;;;15.90;4.80;;;6.40;99.90;;;;;;5111080;28;20773;-54
2022/02/24 07:50:40;;;;;;;7.83;5.20;;;6.50;99.90;;;;;;5110650;28;20434;-54
2022/02/24 07:53:06;;;;;;;8.47;5.60;;;6.60;99.90;;;;;;5110833;28;20439;-54
2022/02/24 07:55:33;;;;;;;9.40;4.67;;;6.60;99.90;;;;;;5110868;28;20536;-54
2022/02/24 07:58:00;;;;;;;9.40;5.70;;;6.60;99.90;;;;;;5112505;28;20428;-52
2022/02/24 08:00:26;;;;;;;11.70;5.00;;;6.70;99.90;;;;;;5114880;28;20461;-54
2022/02/24 08:02:55;;;;;;;12.50;6.50;;;6.70;99.90;;;;;;5115158;28;20430;-53
2022/02/24 08:05:23;;;;;;;10.90;4.70;;;6.60;99.90;;;;;;5115183;28;20459;-54
2022/02/24 08:07:49;;;;;;;10.37;5.23;;;6.80;99.90;;;;;;5115014;28;20536;-53
2022/02/24 08:10:16;;;;;;;7.30;4.10;;;6.90;99.90;;;;;;5115061;28;20872;-53
2022/02/24 08:12:43;;;;;;;12.10;4.67;;;6.90;99.90;;;;;;5115379;28;20412;-53
2022/02/24 08:15:12;;;;;;;10.43;3.77;;;6.90;99.90;;;;;;5114735;28;20430;-54
2022/02/24 08:17:39;;;;;;;9.57;4.10;;;7.00;99.90;;;;;;5115049;28;20409;-53
2022/02/24 08:20:08;;;;;;;15.17;4.10;;;7.00;99.90;;;;;;5114658;28;20426;-54
2022/02/24 08:22:37;;;;;;;9.30;3.50;;;7.10;99.90;;;;;;5115291;28;20448;-54
2022/02/24 08:25:05;;;;;;;10.53;4.43;;;7.10;99.90;;;;;;5114672;28;20454;-53
2022/02/24 08:27:32;;;;;;;9.73;4.40;;;7.20;99.90;;;;;;5114711;28;20435;-54
2022/02/24 08:30:00;;;;;;;8.13;4.57;;;7.20;99.90;;;;;;5114152;28;20486;-53
2022/02/24 08:32:27;;;;;;;16.73;4.13;;;7.20;99.90;;;;;;5114337;28;20580;-53
2022/02/24 08:34:55;;;;;;;13.30;3.47;;;7.30;99.90;;;;;;5114839;28;20436;-54
2022/02/24 08:37:21;;;;;;;9.53;3.60;;;7.30;99.90;;;;;;5114602;28;20489;-54
2022/02/24 08:39:49;;;;;;;9.40;3.63;;;7.40;99.90;;;;;;5114470;28;20955;-54
2022/02/24 08:42:17;;;;;;;11.60;3.57;;;7.50;99.80;;;;;;5113758;28;20436;-54
2022/02/24 08:44:43;;;;;;;8.87;4.13;;;7.60;99.90;;;;;;5114615;28;20450;-53
2022/02/24 08:47:10;;;;;;;10.80;4.13;;;7.60;99.80;;;;;;5112766;28;20531;-53
2022/02/24 08:49:37;;;;;;;8.37;4.00;;;7.60;99.60;;;;;;5114157;28;20440;-50
2022/02/24 08:52:05;;;;;;;10.13;4.30;;;7.60;99.70;;;;;;5114422;28;20422;-51
2022/02/24 08:54:33;;;;;;;7.03;3.37;;;7.70;99.70;;;;;;5114031;28;20748;-50
2022/02/24 08:57:01;;;;;;;13.27;4.60;;;7.60;99.70;;;;;;5114222;28;20498;-51
2022/02/24 08:59:27;;;;;;;5.73;3.63;;;7.60;99.70;;;;;;5114213;28;20434;-51
2022/02/24 09:01:54;;;;;;;7.30;3.63;;;7.70;99.60;;;;;;5114550;28;20430;-51
2022/02/24 09:04:21;;;;;;;11.50;4.70;;;7.70;99.70;;;;;;5114141;28;20449;-54
2022/02/24 09:06:48;;;;;;;5.30;3.73;;;7.80;99.70;;;;;;5095901;28;20507;-53
2022/02/24 09:09:15;;;;;;;6.37;3.67;;;7.90;99.80;;;;;;5112328;28;20432;-53
2022/02/24 09:11:41;;;;;;;9.55;4.32;;;7.90;99.60;;;;;;5113637;28;20451;-53
2022/02/24 09:14:09;;;;;;;7.93;3.70;;;8.20;99.50;;;;;;5113862;28;20564;-51
2022/02/24 09:16:36;;;;;;;13.00;4.60;;;8.20;99.10;;;;;;5113887;28;20458;-53
2022/02/24 09:19:03;;;;;;;8.07;3.50;;;8.30;99.20;;;;;;5113403;28;20477;-52
2022/02/24 09:21:30;;;;;;;7.70;4.27;;;8.30;99.10;;;;;;5113709;28;20457;-52
2022/02/24 09:23:57;;;;;;;8.00;4.10;;;8.30;99.40;;;;;;5113390;28;20515;-55
2022/02/24 09:26:24;;;;;;;5.67;3.10;;;8.30;99.00;;;;;;5113732;28;20452;-53
2022/02/24 09:28:51;;;;;;;10.40;4.20;;;8.40;99.10;;;;;;5113155;28;20442;-53
2022/02/24 09:31:20;;;;;;;7.70;3.20;;;8.40;99.10;;;;;;5113667;28;20458;-53
2022/02/24 09:33:47;;;;;;;7.10;3.40;;;8.50;99.10;;;;;;5113605;28;20440;-53
2022/02/24 09:36:14;;;;;;;8.10;2.93;;;8.50;98.90;;;;;;5113948;28;20426;-55
2022/02/24 09:38:41;;;;;;;9.83;4.10;;;8.50;98.90;;;;;;5113537;28;20782;-53
2022/02/24 09:41:10;;;;;;;9.13;3.77;;;8.50;99.30;;;;;;5113291;28;20506;-53
2022/02/24 09:43:37;;;;;;;8.30;3.63;;;8.60;99.10;;;;;;5113073;28;20435;-52
2022/02/24 09:46:07;;;;;;;5.73;3.67;;;8.60;99.10;;;;;;5113266;28;20490;-52
2022/02/24 09:48:37;;;;;;;11.77;4.95;;;8.60;99.10;;;;;;5112274;28;20411;-52
2022/02/24 09:51:06;;;;;;;11.73;4.50;;;8.80;99.20;;;;;;5113564;28;20270;-53
2022/02/24 09:53:34;;;;;;;6.90;3.67;;;8.80;99.00;;;;;;5112719;28;20432;-53
2022/02/24 09:56:01;;;;;;;7.07;3.30;;;8.80;98.90;;;;;;5112382;28;20450;-54
2022/02/24 09:58:29;;;;;;;10.67;3.93;;;8.90;98.90;;;;;;5112848;28;20415;-53
2022/02/24 10:00:59;;;;;;;10.87;5.27;;;9.10;99.00;;;;;;5112986;28;20441;-54
2022/02/24 10:03:31;;;;;;;6.63;3.77;;;9.00;98.90;;;;;;5113056;28;20413;-54
2022/02/24 10:06:00;;;;;;;12.17;4.07;;;9.20;98.90;;;;;;5113103;28;20426;-54
2022/02/24 10:08:29;;;;;;;9.73;3.92;;;9.20;98.90;;;;;;5111436;28;20835;-53
2022/02/24 10:10:57;;;;;;;6.30;3.27;;;9.50;98.70;;;;;;5113155;28;20269;-53
2022/02/24 10:13:25;;;;;;;10.70;4.33;;;9.50;98.30;;;;;;5112921;28;20407;-53
2022/02/24 10:15:56;;;;;;;8.63;3.80;;;9.60;98.40;;;;;;5113144;28;20451;-55
2022/02/24 10:18:25;;;;;;;9.20;3.90;;;9.60;98.30;;;;;;5112844;28;20440;-51
2022/02/24 10:20:53;;;;;;;9.50;3.90;;;9.70;98.30;;;;;;5112251;28;20546;-53
2022/02/24 10:23:30;;;;;;;7.60;3.90;;;9.70;98.10;;;;;;5112778;28;20508;-54
2022/02/24 10:26:01;;;;;;;17.00;4.07;;;9.80;98.00;;;;;;5112295;28;20457;-53
2022/02/24 10:28:34;;;;;;;12.50;6.40;;;9.80;98.00;;;;;;5112407;28;20428;-53
2022/02/24 10:31:06;;;;;;;11.53;4.50;;;9.90;98.00;;;;;;5112758;28;20436;-53
2022/02/24 10:33:33;;;;;;;11.43;4.40;;;9.90;98.00;;;;;;5112441;28;20809;-53
2022/02/24 10:36:11;;;;;;;7.97;3.63;;;10.10;97.40;;;;;;5112701;28;20436;-55
2022/02/24 10:38:39;;;;;;;9.03;4.67;;;10.00;97.10;;;;;;5112656;28;20428;-53
2022/02/24 10:41:06;;;;;;;10.87;4.20;;;10.10;97.10;;;;;;5112116;28;20419;-54
2022/02/24 10:43:36;;;;;;;9.17;4.37;;;10.20;97.10;;;;;;5112424;28;20440;-53
2022/02/24 10:46:05;;;;;;;6.30;3.80;;;10.20;96.80;;;;;;5111841;28;20491;-52
2022/02/24 10:48:46;;;;;;;6.07;3.57;;;10.30;96.90;;;;;;5111938;28;20975;-54
2022/02/24 10:51:13;;;;;;;9.50;3.23;;;10.30;96.70;;;;;;5113136;28;20452;-53
2022/02/24 10:53:42;;;;;;;6.03;3.40;;;10.50;96.90;;;;;;5112479;28;20793;-54
2022/02/24 10:56:10;;;;;;;7.33;3.80;;;10.60;96.40;;;;;;5123855;22;20492;-46
2022/02/24 10:58:39;;;;;;;7.83;5.10;;;10.70;96.40;;;;;;5112489;28;20950;-45
2022/02/24 11:01:17;;;;;;;11.93;4.80;;;10.70;96.10;;;;;;5112596;28;20941;-46
2022/02/24 11:03:45;;;;;;;10.90;3.57;;;10.70;96.00;;;;;;5113147;28;20436;-45
2022/02/24 11:06:12;;;;;;;9.40;3.67;;;10.80;96.00;;;;;;5112916;28;20452;-46
2022/02/24 11:08:42;;;;;;;6.80;4.13;;;10.80;96.00;;;;;;5112234;28;20460;-45
2022/02/24 11:11:09;;;;;;;6.10;3.60;;;10.80;96.30;;;;;;5112447;28;20793;-45
2022/02/24 11:13:36;;;;;;;7.97;5.33;;;10.90;96.00;;;;;;5112572;28;20444;-46
2022/02/24 11:16:04;;;;;;;7.50;3.67;;;10.80;95.90;;;;;;5113264;28;20448;-45
2022/02/24 11:18:31;;;;;;;8.53;3.50;;;10.80;95.90;;;;;;5112226;28;20511;-44
2022/02/24 11:20:58;;;;;;;8.63;3.90;;;10.80;95.90;;;;;;5112696;28;20882;-45
2022/02/24 11:23:25;;;;;;;7.77;3.90;;;10.70;96.00;;;;;;5112173;28;20898;-45
2022/02/24 11:26:02;;;;;;;13.03;4.70;;;10.70;96.00;;;;;;5112057;28;20994;-44
2022/02/24 11:28:34;;;;;;;14.47;4.80;;;10.70;96.10;;;;;;5112291;28;20523;-44
2022/02/24 11:31:07;;;;;;;8.63;4.57;;;10.60;96.10;;;;;;5112542;28;20437;-47
2022/02/24 11:33:34;;;;;;;10.15;4.00;;;10.70;96.00;;;;;;5109829;28;20426;-44
2022/02/24 11:36:12;;;;;;;8.77;4.30;;;11.00;95.80;;;;;;5111645;28;20443;-44
2022/02/24 11:38:40;;;;;;;10.70;5.27;;;11.00;95.70;;;;;;5111970;28;20473;-46
2022/02/24 11:41:11;;;;;;;7.80;3.90;;;11.00;95.90;;;;;;5112197;28;20826;-44
2022/02/24 11:43:50;;;;;;;11.50;4.60;;;11.00;96.00;;;;;;5105530;28;20850;-45
2022/02/24 11:46:16;;;;;;;7.87;4.10;;;11.00;96.00;;;;;;5110683;28;20476;-45
2022/02/24 11:48:43;;;;;;;5.63;3.80;;;11.00;96.00;;;;;;5092081;28;20750;-45
2022/02/24 11:51:17;;;;;;;6.17;3.10;;;11.00;95.90;;;;;;5098499;28;20437;-47
2022/02/24 11:53:45;;;;;;;10.07;4.57;;;11.00;95.90;;;;;;5113058;28;20444;-46
2022/02/24 11:56:19;;;;;;;8.93;4.47;;;11.10;96.00;;;;;;5112161;28;20460;-46
2022/02/24 11:58:48;;;;;;;15.27;4.73;;;11.00;95.80;;;;;;5111755;28;20949;-45
2022/02/24 12:01:27;;;;;;;5.07;3.23;;;11.10;95.90;;;;;;5112131;28;20822;-45
2022/02/24 12:04:00;;;;;;;8.87;4.20;;;11.10;95.90;;;;;;5112610;28;20456;-45
2022/02/24 12:06:39;;;;;;;8.67;4.30;;;11.00;95.80;;;;;;5111335;28;20843;-45
2022/02/24 12:09:07;;;;;;;7.07;4.27;;;11.10;95.90;;;;;;5110476;28;20529;-44
2022/02/24 12:11:40;;;;;;;10.30;3.50;;;11.10;96.00;;;;;;5111485;28;20524;-45
2022/02/24 12:14:39;;;;;;;9.60;5.17;;;11.20;96.00;;;;;;5112004;28;20455;-45
2022/02/24 12:17:07;;;;;;;9.70;4.77;;;11.20;96.00;;;;;;5103553;28;20852;-45
2022/02/24 12:19:38;;;;;;;10.20;4.90;;;11.20;96.00;;;;;;5091203;28;20967;-45
2022/02/24 12:22:17;;;;;;;10.27;4.50;;;11.20;96.00;;;;;;5091526;28;20431;-44
2022/02/24 12:24:47;;;;;;;7.20;4.10;;;11.20;96.00;;;;;;5091653;28;20818;-45
2022/02/24 12:27:35;;;;;;;8.63;4.80;;;11.20;96.10;;;;;;5091777;28;20545;-45
2022/02/24 12:30:05;;;;;;;9.00;4.57;;;11.20;96.10;;;;;;5091259;28;20469;-46
2022/02/24 12:32:42;;;;;;;10.10;4.90;;;11.20;96.10;;;;;;5091915;28;20541;-46
2022/02/24 12:35:11;;;;;;;24.53;6.07;;;11.20;96.20;;;;;;5107505;28;20820;-45
2022/02/24 12:37:39;;;;;;;7.33;5.03;;;11.10;96.20;;;;;;5112215;28;20807;-46
2022/02/24 12:40:07;;;;;;;10.40;4.93;;;11.20;96.30;;;;;;5111178;28;20486;-46
2022/02/24 12:42:35;;;;;;;10.60;5.43;;;11.20;96.30;;;;;;5111287;28;20466;-46
2022/02/24 12:45:02;;;;;;;8.40;5.60;;;11.20;96.40;;;;;;5114727;28;20522;-45
2022/02/24 12:47:29;;;;;;;7.80;5.40;;;11.20;96.40;;;;;;5115410;28;20492;-46
2022/02/24 12:49:57;;;;;;;7.53;4.40;;;11.20;96.40;;;;;;5097148;28;20417;-45
2022/02/24 12:52:27;;;;;;;7.37;4.30;;;11.20;96.40;;;;;;5115451;28;20438;-48
2022/02/24 12:54:55;;;;;;;14.23;9.73;;;11.20;96.40;;;;;;5115321;28;20517;-46